createdAt,value
2023-04-15T00:01:49.858Z,12.89
2023-04-15T00:04:17.241Z,12.72
2023-04-15T00:06:51.724Z,12.60
2023-04-15T00:09:19.795Z,12.48
2023-04-15T00:11:47.015Z,12.43
2023-04-15T00:14:14.287Z,12.36
2023-04-15T00:16:41.689Z,12.34
2023-04-15T00:19:08.771Z,12.32
2023-04-15T00:21:36.039Z,12.32
2023-04-15T00:24:03.977Z,12.36
2023-04-15T00:26:31.088Z,12.37
2023-04-15T00:28:58.730Z,12.43
2023-04-15T00:31:26.169Z,12.39
2023-04-15T00:33:53.366Z,12.42
2023-04-15T00:36:23.552Z,12.37
2023-04-15T00:38:50.847Z,12.29
2023-04-15T00:41:19.533Z,12.21
2023-04-15T00:43:46.798Z,12.12
2023-04-15T00:46:17.869Z,12.10
2023-04-15T00:48:46.145Z,12.06
2023-04-15T00:51:16.333Z,12.03
2023-04-15T00:53:43.962Z,11.99
2023-04-15T00:56:11.087Z,11.95
2023-04-15T00:58:38.413Z,11.97
2023-04-15T01:01:05.739Z,11.92
2023-04-15T01:03:33.373Z,11.89
2023-04-15T01:06:03.765Z,11.81
2023-04-15T01:08:32.021Z,11.82
2023-04-15T01:11:01.799Z,12.00
2023-04-15T01:13:30.786Z,12.29
2023-04-15T01:15:58.326Z,12.45
2023-04-15T01:18:26.127Z,12.61
2023-04-15T01:20:53.503Z,12.71
2023-04-15T01:23:24.633Z,12.79
2023-04-15T01:25:53.650Z,12.89
2023-04-15T01:28:20.788Z,12.95
2023-04-15T01:30:48.719Z,12.99
2023-04-15T01:33:16.273Z,12.97
2023-04-15T01:35:44.659Z,12.95
2023-04-15T01:38:12.602Z,12.93
2023-04-15T01:40:41.032Z,12.91
2023-04-15T01:43:08.484Z,12.91
2023-04-15T01:45:35.518Z,12.94
2023-04-15T01:48:04.618Z,12.95
2023-04-15T01:50:31.686Z,12.98
2023-04-15T01:52:58.900Z,13.01
2023-04-15T01:55:26.320Z,13.02
2023-04-15T01:57:53.462Z,13.01
2023-04-15T02:00:22.501Z,13.02
2023-04-15T02:02:49.984Z,12.98
2023-04-15T02:05:17.130Z,12.99
2023-04-15T02:07:48.648Z,13.01
2023-04-15T02:10:16.925Z,13.04
2023-04-15T02:12:44.425Z,13.09
2023-04-15T02:15:12.014Z,13.13
2023-04-15T02:17:39.229Z,13.20
2023-04-15T02:20:11.646Z,13.19
2023-04-15T02:22:38.765Z,13.23
2023-04-15T02:25:06.374Z,13.25
2023-04-15T02:27:33.528Z,13.27
2023-04-15T02:30:00.760Z,13.27
2023-04-15T02:32:29.154Z,13.31
2023-04-15T02:34:56.456Z,13.29
2023-04-15T02:37:24.927Z,13.25
2023-04-15T02:39:52.127Z,13.22
2023-04-15T02:42:21.737Z,13.22
2023-04-15T02:44:50.183Z,13.21
2023-04-15T02:47:18.332Z,13.19
2023-04-15T02:49:45.556Z,13.17
2023-04-15T02:52:12.725Z,13.16
2023-04-15T02:54:39.920Z,13.12
2023-04-15T02:57:07.017Z,13.09
2023-04-15T02:59:34.483Z,13.09
2023-04-15T03:02:01.776Z,13.06
2023-04-15T03:04:30.312Z,13.05
2023-04-15T03:06:57.622Z,12.99
2023-04-15T03:09:25.986Z,12.98
2023-04-15T03:11:54.956Z,12.98
2023-04-15T03:14:22.839Z,13.01
2023-04-15T03:16:50.840Z,13.00
2023-04-15T03:19:18.920Z,12.96
2023-04-15T03:21:45.977Z,12.93
2023-04-15T03:24:14.140Z,12.88
2023-04-15T03:26:41.332Z,12.83
2023-04-15T03:29:15.309Z,12.79
2023-04-15T03:31:42.894Z,12.76
2023-04-15T03:34:09.977Z,12.73
2023-04-15T03:36:37.370Z,12.70
2023-04-15T03:39:04.558Z,12.62
2023-04-15T03:41:33.078Z,12.61
2023-04-15T03:44:00.381Z,12.63
2023-04-15T03:46:28.075Z,12.65
2023-04-15T03:48:55.217Z,12.70
2023-04-15T03:51:22.433Z,12.75
2023-04-15T03:53:49.472Z,12.85
2023-04-15T03:56:16.606Z,12.96
2023-04-15T03:58:43.791Z,13.04
2023-04-15T04:01:10.849Z,13.09
2023-04-15T04:03:38.094Z,13.19
2023-04-15T04:06:05.395Z,13.23
2023-04-15T04:08:32.614Z,13.29
2023-04-15T04:10:59.746Z,13.31
2023-04-15T04:13:26.835Z,13.35
2023-04-15T04:15:53.839Z,13.37
2023-04-15T04:18:21.122Z,13.40
2023-04-15T04:20:48.244Z,13.38
2023-04-15T04:23:15.412Z,13.37
2023-04-15T04:25:42.586Z,13.33
2023-04-15T04:28:09.763Z,13.30
2023-04-15T04:30:37.036Z,13.27
2023-04-15T04:33:04.219Z,13.25
2023-04-15T04:35:33.835Z,13.22
2023-04-15T04:38:01.802Z,13.19
2023-04-15T04:40:29.035Z,13.16
2023-04-15T04:42:56.381Z,13.17
2023-04-15T04:45:23.825Z,13.17
2023-04-15T04:47:51.012Z,13.19
2023-04-15T04:50:18.146Z,13.18
2023-04-15T04:52:45.434Z,13.24
2023-04-15T04:55:12.615Z,13.32
2023-04-15T04:57:39.845Z,13.40
2023-04-15T05:00:09.207Z,13.50
2023-04-15T05:02:36.996Z,13.69
2023-04-15T05:05:04.500Z,14.06
2023-04-15T05:07:31.982Z,15.07
2023-04-15T05:09:59.164Z,16.02
2023-04-15T05:12:26.389Z,17.05
2023-04-15T05:14:53.584Z,17.99
2023-04-15T05:17:20.971Z,18.88
2023-04-15T05:19:48.376Z,18.81
2023-04-15T05:22:15.630Z,18.45
2023-04-15T05:24:42.805Z,18.01
2023-04-15T05:27:11.778Z,17.74
2023-04-15T05:29:38.941Z,17.64
2023-04-15T05:32:06.350Z,17.24
2023-04-15T05:34:33.688Z,16.90
2023-04-15T05:37:00.894Z,16.49
2023-04-15T05:39:28.091Z,16.14
2023-04-15T05:41:55.169Z,15.94
2023-04-15T05:44:22.289Z,15.71
2023-04-15T05:46:49.307Z,15.58
2023-04-15T05:49:16.561Z,15.46
2023-04-15T05:51:43.621Z,15.43
2023-04-15T05:54:10.972Z,15.51
2023-04-15T05:56:38.044Z,15.65
2023-04-15T05:59:06.892Z,15.74
2023-04-15T06:01:34.525Z,15.75
2023-04-15T06:04:02.095Z,15.81
2023-04-15T06:06:29.282Z,15.80
2023-04-15T06:08:56.403Z,15.91
2023-04-15T06:11:23.485Z,15.98
2023-04-15T06:13:50.736Z,16.13
2023-04-15T06:16:17.772Z,16.23
2023-04-15T06:18:45.014Z,16.44
2023-04-15T06:21:12.065Z,16.58
2023-04-15T06:23:41.278Z,16.82
2023-04-15T06:26:08.735Z,16.97
2023-04-15T06:28:36.059Z,17.08
2023-04-15T06:31:03.757Z,17.14
2023-04-15T06:33:30.891Z,17.17
2023-04-15T06:35:58.111Z,17.56
2023-04-15T06:38:25.116Z,17.90
2023-04-15T06:40:52.626Z,18.16
2023-04-15T06:43:20.345Z,18.58
2023-04-15T06:45:47.593Z,19.01
2023-04-15T06:48:14.683Z,19.57
2023-04-15T06:50:41.956Z,19.94
2023-04-15T06:53:09.035Z,20.51
2023-04-15T06:55:36.094Z,20.32
2023-04-15T06:58:03.163Z,20.21
2023-04-15T07:00:30.690Z,20.07
2023-04-15T07:02:58.030Z,19.74
2023-04-15T07:05:25.588Z,19.32
2023-04-15T07:07:53.271Z,19.04
2023-04-15T07:10:20.556Z,18.97
2023-04-15T07:12:48.855Z,18.72
2023-04-15T07:15:16.027Z,18.68
2023-04-15T07:17:46.090Z,18.91
2023-04-15T07:20:13.359Z,19.57
2023-04-15T07:22:40.981Z,19.84
2023-04-15T07:25:09.199Z,19.96
2023-04-15T07:27:36.480Z,20.06
2023-04-15T07:30:03.814Z,19.79
2023-04-15T07:32:31.317Z,20.44
2023-04-15T07:34:58.541Z,21.33
2023-04-15T07:37:25.773Z,22.00
2023-04-15T07:39:53.317Z,21.63
2023-04-15T07:42:20.530Z,21.35
2023-04-15T07:44:47.703Z,20.97
2023-04-15T07:47:14.920Z,21.29
2023-04-15T07:49:43.681Z,21.69
2023-04-15T07:52:11.296Z,21.71
2023-04-15T07:54:38.365Z,22.07
2023-04-15T07:57:05.650Z,22.22
2023-04-15T07:59:33.705Z,22.91
2023-04-15T08:02:01.067Z,23.69
2023-04-15T08:04:28.699Z,24.00
2023-04-15T08:06:55.905Z,23.71
2023-04-15T08:09:23.005Z,23.42
2023-04-15T08:11:51.358Z,23.26
2023-04-15T08:14:18.470Z,23.39
2023-04-15T08:16:45.584Z,22.96
2023-04-15T08:19:12.758Z,21.78
2023-04-15T08:21:40.772Z,20.61
2023-04-15T08:24:08.288Z,19.97
2023-04-15T08:26:35.749Z,19.72
2023-04-15T08:29:03.065Z,19.51
2023-04-15T08:31:30.854Z,19.37
2023-04-15T08:33:58.274Z,19.39
2023-04-15T08:36:25.689Z,19.76
2023-04-15T08:38:52.787Z,19.87
2023-04-15T08:41:24.701Z,20.04
2023-04-15T08:43:58.109Z,20.03
2023-04-15T08:46:25.791Z,20.33
2023-04-15T08:48:55.766Z,20.21
2023-04-15T08:51:24.553Z,20.07
2023-04-15T08:53:52.801Z,19.89
2023-04-15T08:56:24.551Z,19.65
2023-04-15T08:58:52.749Z,19.64
2023-04-15T09:01:20.602Z,19.67
2023-04-15T09:03:50.716Z,19.78
2023-04-15T09:06:18.543Z,19.58
2023-04-15T09:08:46.102Z,19.72
2023-04-15T09:11:13.566Z,19.64
2023-04-15T09:13:40.725Z,19.61
2023-04-15T09:16:08.634Z,19.76
2023-04-15T09:18:39.914Z,19.92
2023-04-15T09:21:14.191Z,20.11
2023-04-15T09:23:54.430Z,20.07
2023-04-15T09:26:31.806Z,20.47
2023-04-15T09:29:15.502Z,21.01
2023-04-15T09:31:43.943Z,21.18
2023-04-15T09:34:12.040Z,21.00
2023-04-15T09:36:54.684Z,21.11
2023-04-15T09:39:23.473Z,21.14
2023-04-15T09:42:07.670Z,21.25
2023-04-15T09:44:35.191Z,21.35
2023-04-15T09:47:02.473Z,21.62
2023-04-15T09:49:29.885Z,21.73
2023-04-15T09:52:06.308Z,22.08
2023-04-15T09:54:36.485Z,22.33
2023-04-15T09:57:09.062Z,22.32
2023-04-15T09:59:36.448Z,22.54
2023-04-15T10:02:07.745Z,22.51
2023-04-15T10:04:40.000Z,22.42
2023-04-15T10:07:09.899Z,21.93
2023-04-15T10:09:38.941Z,21.73
2023-04-15T10:12:06.297Z,21.54
2023-04-15T10:14:35.788Z,21.26
2023-04-15T10:17:05.745Z,21.19
2023-04-15T10:19:34.696Z,21.25
2023-04-15T10:22:02.352Z,21.05
2023-04-15T10:24:34.355Z,21.18
2023-04-15T10:27:04.493Z,21.21
2023-04-15T10:29:31.880Z,21.21
2023-04-15T10:32:03.351Z,21.20
2023-04-15T10:34:31.428Z,21.34
2023-04-15T10:37:03.860Z,20.96
2023-04-15T10:39:37.764Z,20.54
2023-04-15T10:42:08.922Z,20.61
2023-04-15T10:44:41.789Z,20.96
2023-04-15T10:47:19.132Z,21.02
2023-04-15T10:49:58.175Z,20.97
2023-04-15T10:52:27.801Z,21.16
2023-04-15T10:55:19.408Z,21.22
2023-04-15T10:57:46.512Z,21.17
2023-04-15T11:00:14.865Z,21.01
2023-04-15T11:03:08.445Z,20.39
2023-04-15T11:05:42.515Z,19.89
2023-04-15T11:08:11.994Z,19.26
2023-04-15T11:10:39.798Z,18.76
2023-04-15T11:13:11.551Z,18.54
2023-04-15T11:15:41.830Z,18.36
2023-04-15T11:18:13.122Z,18.09
2023-04-15T11:20:42.256Z,17.76
2023-04-15T11:23:14.930Z,17.55
2023-04-15T11:25:43.504Z,17.48
2023-04-15T11:28:13.182Z,17.52
2023-04-15T11:30:41.111Z,17.53
2023-04-15T11:33:10.709Z,17.25
2023-04-15T11:35:38.609Z,16.97
2023-04-15T11:38:08.916Z,16.67
2023-04-15T11:40:36.586Z,16.72
2023-04-15T11:43:09.437Z,16.90
2023-04-15T11:45:38.591Z,17.09
2023-04-15T11:48:10.131Z,17.30
2023-04-15T11:50:40.905Z,17.42
2023-04-15T11:53:10.070Z,17.52
2023-04-15T11:55:50.645Z,17.53
2023-04-15T11:58:26.880Z,17.57
2023-04-15T12:00:59.031Z,17.62
2023-04-15T12:03:27.686Z,17.69
2023-04-15T12:06:11.810Z,17.82
2023-04-15T12:09:06.903Z,17.95
2023-04-15T12:11:43.000Z,18.31
2023-04-15T12:14:28.677Z,18.84
2023-04-15T12:17:00.539Z,19.09
2023-04-15T12:19:32.093Z,19.32
2023-04-15T12:22:04.350Z,19.17
2023-04-15T12:24:33.893Z,18.98
2023-04-15T12:27:04.995Z,19.05
2023-04-15T12:29:33.249Z,18.94
2023-04-15T12:32:22.180Z,18.61
2023-04-15T12:34:54.627Z,18.56
2023-04-15T12:37:22.628Z,18.50
2023-04-15T12:39:51.369Z,18.39
2023-04-15T12:42:19.941Z,18.24
2023-04-15T12:44:47.617Z,18.03
2023-04-15T12:47:15.589Z,17.90
2023-04-15T12:49:43.038Z,17.75
2023-04-15T12:52:10.983Z,17.81
2023-04-15T12:54:38.678Z,17.91
2023-04-15T12:57:07.427Z,17.88
2023-04-15T12:59:36.415Z,17.90
2023-04-15T13:02:04.913Z,18.03
2023-04-15T13:04:32.784Z,18.23
2023-04-15T13:07:00.781Z,18.36
2023-04-15T13:09:28.313Z,18.72
2023-04-15T13:11:57.752Z,19.14
2023-04-15T13:14:26.033Z,19.52
2023-04-15T13:16:54.196Z,19.83
2023-04-15T13:19:21.660Z,19.73
2023-04-15T13:21:48.974Z,19.59
2023-04-15T13:24:17.634Z,19.45
2023-04-15T13:26:45.034Z,19.53
2023-04-15T13:29:13.974Z,19.43
2023-04-15T13:31:41.296Z,19.08
2023-04-15T13:34:08.668Z,18.81
2023-04-15T13:36:36.109Z,18.08
2023-04-15T13:39:03.765Z,17.49
2023-04-15T13:41:30.853Z,17.45
2023-04-15T13:43:58.815Z,17.54
2023-04-15T13:46:26.454Z,17.56
2023-04-15T13:48:53.863Z,17.27
2023-04-15T13:51:21.040Z,17.41
2023-04-15T13:53:48.324Z,17.92
2023-04-15T13:56:15.571Z,18.30
2023-04-15T13:58:42.854Z,18.41
2023-04-15T14:01:10.068Z,18.41
2023-04-15T14:03:38.370Z,18.26
2023-04-15T14:06:06.735Z,18.09
2023-04-15T14:08:34.446Z,17.69
2023-04-15T14:11:01.589Z,17.02
2023-04-15T14:13:28.807Z,16.75
2023-04-15T14:15:57.623Z,16.56
2023-04-15T14:18:25.090Z,16.54
2023-04-15T14:20:52.266Z,16.61
2023-04-15T14:23:19.478Z,16.58
2023-04-15T14:25:48.270Z,16.58
2023-04-15T14:28:16.261Z,16.57
2023-04-15T14:30:43.982Z,16.56
2023-04-15T14:33:11.432Z,16.69
2023-04-15T14:35:39.360Z,16.88
2023-04-15T14:38:10.855Z,17.03
2023-04-15T14:40:38.412Z,17.20
2023-04-15T14:43:06.318Z,17.22
2023-04-15T14:45:34.754Z,17.28
2023-04-15T14:48:02.678Z,17.62
2023-04-15T14:50:30.087Z,18.05
2023-04-15T14:52:57.221Z,18.63
2023-04-15T14:55:24.328Z,18.95
2023-04-15T14:57:51.476Z,19.09
2023-04-15T15:00:19.607Z,18.97
2023-04-15T15:02:49.145Z,18.74
2023-04-15T15:05:16.622Z,18.60
2023-04-15T15:07:43.979Z,18.49
2023-04-15T15:10:11.124Z,18.42
2023-04-15T15:12:38.200Z,18.43
2023-04-15T15:15:15.469Z,18.58
2023-04-15T15:17:47.462Z,18.59
2023-04-15T15:20:14.888Z,18.67
2023-04-15T15:22:42.124Z,18.73
2023-04-15T15:25:09.348Z,18.82
2023-04-15T15:27:38.217Z,18.73
2023-04-15T15:30:07.085Z,18.67
2023-04-15T15:32:34.555Z,18.63
2023-04-15T15:35:01.825Z,18.61
2023-04-15T15:37:31.163Z,18.53
2023-04-15T15:39:58.318Z,18.51
2023-04-15T15:42:25.726Z,18.57
2023-04-15T15:44:55.594Z,18.68
2023-04-15T15:47:23.313Z,18.82
2023-04-15T15:49:50.576Z,18.89
2023-04-15T15:52:17.695Z,18.92
2023-04-15T15:54:44.757Z,18.86
2023-04-15T15:57:11.923Z,18.76
2023-04-15T15:59:41.388Z,18.66
2023-04-15T16:02:12.852Z,18.52
2023-04-15T16:04:40.952Z,18.46
2023-04-15T16:07:08.124Z,18.46
2023-04-15T16:09:35.673Z,18.56
2023-04-15T16:12:04.071Z,18.61
2023-04-15T16:14:31.388Z,18.58
2023-04-15T16:16:58.525Z,18.51
2023-04-15T16:19:25.694Z,18.48
2023-04-15T16:21:53.083Z,18.45
2023-04-15T16:24:20.297Z,18.45
2023-04-15T16:26:47.599Z,18.48
2023-04-15T16:29:14.853Z,18.50
2023-04-15T16:31:42.445Z,18.48
2023-04-15T16:34:09.966Z,18.46
2023-04-15T16:36:37.152Z,18.32
2023-04-15T16:39:04.738Z,18.17
2023-04-15T16:41:34.316Z,18.09
2023-04-15T16:44:03.579Z,18.03
2023-04-15T16:46:31.166Z,18.01
2023-04-15T16:48:58.583Z,17.96
2023-04-15T16:51:26.661Z,17.91
2023-04-15T16:53:53.833Z,17.89
2023-04-15T16:56:22.221Z,17.87
2023-04-15T16:58:49.527Z,17.81
2023-04-15T17:01:16.745Z,17.75
2023-04-15T17:03:44.090Z,17.65
2023-04-15T17:06:11.337Z,17.57
2023-04-15T17:08:38.639Z,17.44
2023-04-15T17:11:06.613Z,17.38
2023-04-15T17:13:34.573Z,17.32
2023-04-15T17:16:03.137Z,17.25
2023-04-15T17:18:31.575Z,17.21
2023-04-15T17:20:59.781Z,17.18
2023-04-15T17:23:27.812Z,17.11
2023-04-15T17:25:56.683Z,17.07
2023-04-15T17:28:24.453Z,17.03
2023-04-15T17:30:52.184Z,16.97
2023-04-15T17:34:01.042Z,16.91
2023-04-15T17:36:08.028Z,16.85
2023-04-15T17:38:35.560Z,16.83
2023-04-15T17:41:02.850Z,16.80
2023-04-15T17:43:38.717Z,16.77
2023-04-15T17:46:08.019Z,16.70
2023-04-15T17:48:35.639Z,16.63
2023-04-15T17:51:03.074Z,16.58
2023-04-15T17:53:30.273Z,16.53
2023-04-15T17:55:58.665Z,16.48
2023-04-15T17:58:27.642Z,16.39
2023-04-15T18:00:55.089Z,16.33
2023-04-15T18:03:22.909Z,16.30
2023-04-15T18:05:50.932Z,16.27
2023-04-15T18:08:18.352Z,16.21
2023-04-15T18:10:45.606Z,16.15
2023-04-15T18:13:13.016Z,16.09
2023-04-15T18:15:40.395Z,16.02
2023-04-15T18:18:07.505Z,15.97
2023-04-15T18:20:34.829Z,15.92
2023-04-15T18:23:01.961Z,15.88
2023-04-15T18:25:30.189Z,15.84
2023-04-15T18:27:57.433Z,15.79
2023-04-15T18:30:24.596Z,15.74
2023-04-15T18:32:51.856Z,15.67
2023-04-15T18:35:19.183Z,15.64
2023-04-15T18:37:46.342Z,15.60
2023-04-15T18:40:13.540Z,15.57
2023-04-15T18:42:40.768Z,15.54
2023-04-15T18:45:08.350Z,15.51
2023-04-15T18:47:35.620Z,15.45
2023-04-15T18:50:02.912Z,15.40
2023-04-15T18:52:30.679Z,15.35
2023-04-15T18:54:58.087Z,15.30
2023-04-15T18:57:32.365Z,15.25
2023-04-15T19:00:02.968Z,15.21
2023-04-15T19:02:30.394Z,15.21
2023-04-15T19:04:57.694Z,15.17
2023-04-15T19:07:25.280Z,15.18
2023-04-15T19:09:53.512Z,15.16
2023-04-15T19:12:20.811Z,15.14
2023-04-15T19:14:48.356Z,15.12
2023-04-15T19:17:16.098Z,15.08
2023-04-15T19:19:44.254Z,15.06
2023-04-15T19:22:12.423Z,15.05
2023-04-15T19:24:40.856Z,15.00
2023-04-15T19:27:09.578Z,14.99
2023-04-15T19:29:37.215Z,14.97
2023-04-15T19:32:05.867Z,14.93
2023-04-15T19:34:33.155Z,14.88
2023-04-15T19:37:01.084Z,14.88
2023-04-15T19:39:28.492Z,14.92
2023-04-15T19:41:56.114Z,14.93
2023-04-15T19:44:23.176Z,14.95
2023-04-15T19:46:51.696Z,14.92
2023-04-15T19:49:20.633Z,14.91
2023-04-15T19:51:51.222Z,14.91
2023-04-15T19:54:18.742Z,14.87
2023-04-15T19:56:45.994Z,14.86
2023-04-15T19:59:13.169Z,14.77
2023-04-15T20:01:40.621Z,14.71
2023-04-15T20:04:08.067Z,14.68
2023-04-15T20:06:35.432Z,14.67
2023-04-15T20:09:03.119Z,14.67
2023-04-15T20:12:44.873Z,14.68
2023-04-15T20:14:19.313Z,14.66
2023-04-15T20:16:47.019Z,14.63
2023-04-15T20:19:14.875Z,14.60
2023-04-15T20:21:42.515Z,14.57
2023-04-15T20:24:10.037Z,14.53
2023-04-15T20:26:37.550Z,14.49
2023-04-15T20:29:05.449Z,14.45
2023-04-15T20:31:34.156Z,14.38
2023-04-15T20:34:01.442Z,14.35
2023-04-15T20:36:28.770Z,14.36
2023-04-15T20:38:55.933Z,14.36
2023-04-15T20:41:23.406Z,14.41
2023-04-15T20:43:50.579Z,14.37
2023-04-15T20:46:21.473Z,14.36
2023-04-15T20:48:49.186Z,14.29
2023-04-15T20:51:16.688Z,14.24
2023-04-15T20:53:43.749Z,14.17
2023-04-15T20:56:11.077Z,14.13
2023-04-15T20:58:38.866Z,14.11
2023-04-15T21:01:06.368Z,14.11
2023-04-15T21:03:33.746Z,14.08
2023-04-15T21:06:01.132Z,14.04
2023-04-15T21:08:31.718Z,14.01
2023-04-15T21:10:59.482Z,13.99
2023-04-15T21:13:26.751Z,13.96
2023-04-15T21:15:54.559Z,13.94
2023-04-15T21:18:22.579Z,13.92
2023-04-15T21:20:59.413Z,13.88
2023-04-15T21:23:28.888Z,13.87
2023-04-15T21:25:57.002Z,13.86
2023-04-15T21:28:24.257Z,13.86
2023-04-15T21:30:51.390Z,13.87
2023-04-15T21:33:20.451Z,13.84
2023-04-15T21:35:47.433Z,13.81
2023-04-15T21:38:14.924Z,13.81
2023-04-15T21:40:42.034Z,13.77
2023-04-15T21:43:09.497Z,13.75
2023-04-15T21:45:39.464Z,13.71
2023-04-15T21:48:08.127Z,13.66
2023-04-15T21:50:38.915Z,13.65
2023-04-15T21:53:08.316Z,13.63
2023-04-15T21:55:36.237Z,13.63
2023-04-15T21:58:03.546Z,13.61
2023-04-15T22:00:30.764Z,13.60
2023-04-15T22:02:57.975Z,13.59
2023-04-15T22:05:26.251Z,13.58
2023-04-15T22:07:53.440Z,13.57
2023-04-15T22:10:21.057Z,13.57
2023-04-15T22:12:48.099Z,13.54
2023-04-15T22:15:17.002Z,13.52
2023-04-15T22:17:44.148Z,13.51
2023-04-15T22:20:11.413Z,13.48
2023-04-15T22:22:43.941Z,13.43
2023-04-15T22:25:12.167Z,13.41
2023-04-15T22:27:39.269Z,13.40
2023-04-15T22:30:07.221Z,13.37
2023-04-15T22:32:34.349Z,13.39
2023-04-15T22:35:02.507Z,13.36
2023-04-15T22:37:32.095Z,13.36
2023-04-15T22:39:59.754Z,13.35
2023-04-15T22:42:26.801Z,13.33
2023-04-15T22:44:53.863Z,13.32
2023-04-15T22:47:20.975Z,13.29
2023-04-15T22:49:48.278Z,13.25
2023-04-15T22:52:29.407Z,13.22
2023-04-15T22:54:57.913Z,13.18
2023-04-15T22:57:25.171Z,13.16
2023-04-15T22:59:52.247Z,13.14
2023-04-15T23:02:19.700Z,13.12
2023-04-15T23:04:47.100Z,13.11
2023-04-15T23:07:14.338Z,13.10
2023-04-15T23:09:41.519Z,13.09
2023-04-15T23:12:08.552Z,13.07
2023-04-15T23:14:35.856Z,13.07
2023-04-15T23:17:02.890Z,13.06
2023-04-15T23:19:30.126Z,13.07
2023-04-15T23:21:57.227Z,13.07
2023-04-15T23:24:24.502Z,13.06
2023-04-15T23:26:53.177Z,13.03
2023-04-15T23:29:20.559Z,13.00
2023-04-15T23:31:47.671Z,13.02
2023-04-15T23:34:14.997Z,13.04
2023-04-15T23:36:41.987Z,13.07
2023-04-15T23:39:09.395Z,13.03
2023-04-15T23:41:36.776Z,13.04
2023-04-15T23:44:03.966Z,13.00
2023-04-15T23:46:31.208Z,12.96
2023-04-15T23:48:58.282Z,12.97
2023-04-15T23:51:25.541Z,12.98
2023-04-15T23:53:52.573Z,13.01
2023-04-15T23:56:19.861Z,13.02
2023-04-15T23:58:46.932Z,13.03
